Aérodrome :
LOGIN :

S'inscrire | Disclaimer

   EN    FR    IT 

 










Légende :    VFR   VFR Marginal   IFR   IFR Intensif   IFR Très Intensif
Visi : 
Plafond : 
>= 8 km
>= 3000ft
5 à 8 km
1000 à 3000 ft
1500m à 5 km
500 à 1000 ft
800 à 1500m
200 à 500 ft
< 800m
< 200 ft
Symboles :   Orages  Brouillard  Fortes neiges  Fortes précipitations  Vent > 20 kt
SIGMETs :   Divers  Orages  Givrage  Turbulence  Onde Orograph.  Cendres Volcan.







- Altitude de l'aérodrome : 26 ft
- Code IATA : GLA
- Voir les cartes d'approche


EGPF - Glasgow

DERNIER METAR :
  • 231950Z AUTO 21014KT 9999 BKN021 07/04 Q1000

METARs EXPIRÉS :
  • 231920Z AUTO 21016KT 9999 SCT035 07/04 Q1000
  • 231850Z AUTO 22013KT 9999 BKN033 OVC041 07/04 Q1000
  • 231820Z AUTO 23012KT 9999 SCT028 BKN047 07/04 Q1000
  • 231750Z AUTO 23017KT 9999 FEW029 SCT036 07/04 Q0999
  • 231720Z AUTO 24013KT 9999 //////TCU 08/05 Q0998

TAF TAF EGPF
Valide du 23 à 18h jusqu'au 24 à 18h UTC


231659Z 2318/2418 21016KT 9999 SCT025
TEMPO 2318/2320 22025G35KT 4000 SHRA BKN009
TEMPO 2400/2406 21025G40KT 3000 RADZ +RA BKN008
TEMPO 2406/2418 22020G30KT 6000 SHRA BKN012
ATIS : +44 141 887 7449
Pas de NOTAMs connus pour ce terrain.
1 SIGMET publié pour la FIR Scottish (EGPX) :
 
Onde orographique forte
EGPX SIGMET 02 VALID 231900/232300 EGRR
EGPX SCOTTISH FIR SEV MTW FCST WI N5500 W00100 - N5500 W00216 - N5910 W00446 - N5934 W00114 - N5500 E00153 - N5500 W00100 SFC/FL150 STNR WKN=



MET'MAP, la Météo Aéronautique d'un coup d'oeil ! - Copyright ORBIFLY Décembre 2007 - Disclaimer

ORBIFLY MET'MAP TEAM :

Programmation & Développement : Alexandra Zaïnal
Conception & Développement : Baudouin d'Aumeries
Co-Programmation & Développement : Marc-Olivier Méhu
Soutien technique & logistique : Manuel Goepfert

Contact : metmap@orbifly.com




SOURCES & CREDITS :

   NOAA